Savanna, OK (74565)

6:52 PM CDT on July 31, 2014 (GMT -0500)
McAlester Regional (KMLC) Elev 768 ft | 34.88 °N, 95.78 °W | Change Station
Active Advisory: Areal Flood Warning Active Notice: Local Storm Report

Current weather conditions updated 59 minutes ago

Overcast
Overcast
72 °F
Feels Like 72 °F
N
6
Wind Variable Wind from NE

Tomorrow is forecast to be Much Warmer than today.

Today
High -- | Low -- °F
--% Chance of Precip.
Yesterday
High -- | Low -- °F
Precip. -- in
6:32 AM 8:26 PM
Waxing Crescent, 22% visible
Pressure 30.03 in
Visibility 10.0 miles
Clouds Overcast 1600 ft
Dew Point 66 °F
Humidity 81%
Rainfall 1.70 in
Snow Depth Not available.
UV 1 out of 12
Pollen .70 out of 12
Air Quality Not available.
Flu Activity Not available.
METAR KMLC 312253Z AUTO 05005KT 10SM OVC016 22/19 A3005 RMK AO2 SLP169 T02220189

More Conditions Fewer Conditions

Pressure 30.03 in
Visibility 10.0 miles
Clouds Overcast 1600 ft
Dew Point 66 °F
Humidity 81%
Rainfall 1.70 in
Snow Depth Not available.
UV 1 out of 12
Pollen .70 out of 12
Air Quality Not available.
Flu Activity Not available.
METAR KMLC 312253Z AUTO 05005KT 10SM OVC016 22/19 A3005 RMK AO2 SLP169 T02220189

More Conditions Fewer Conditions

10-Day Weather Forecast

Almanac

Astronomy

Jul. 31, 2014 Rise Set
Actual Time 6:32 AM CDT 8:26 PM CDT
Civil Twilight 6:04 AM CDT 8:54 PM CDT
Nautical Twilight 5:30 AM CDT 9:27 PM CDT
Astronomical Twilight 4:54 AM CDT 10:03 PM CDT
Moon 10:48 AM CDT 10:53 PM CDT
Length of Visible Light 14h 49m
Length of Day
13h 54m
Tomorrow will be 1m 37s shorter.
Waxing Crescent, 22% of the Moon is Illuminated
Today
Waxing Crescent
Aug 3
First Quarter
Aug 10
Full
Aug 17
Last Quarter
Aug 25
New

Today's Extremes

State Highs State Lows

Community

WunderPhotos

Upload Photos

1,739,460 photos uploaded!

Nearby

Snow Depth

Station Depth Elevation
No new snow has been reported.

Earthquake Activity

City Distance Mag. Time & Date
Yale, Oklahoma 106 miles 3.2 5:19 PM CDT
2014-07-27
Perry, Oklahoma 136 miles 2.8 4:28 AM CDT
2014-07-27
Minimum magnitude displayed is 2.5.

Coastal Water Temperatures

Place Temperature
No Stations Reporting

Nearby Weather Stations

Station Location Temp. Dew Point Humidity Wind Precip. Elev Updated Type
MesoWest NAVY , Savanna, OK 67 °F - - North  at  - 0.00 in / hr 711 ft 5:40 PM CDT MADIS
Kinkead Hills, McAlester, OK 70.1 °F 67 °F 88% NE  at  0.0 mph - / hr 808 ft 6:40 PM CDT Normal
MesoWest GRACE , Wardville, OK 68 °F - - North  at  - 0.00 in / hr 678 ft 5:20 PM CDT MADIS

Show More Stations Show Fewer Stations